• Join FlightAware (Why Join?)
  • Login
  • US Flag 
05:47AM EDT


 

Airport Tracker/Info


-or-


 

Live Flight TrackerFlight Track Log ✈ AAY800 ✈ 25-Mar-2014 ✈ KPIE - KTOL

Flight Track Log - Related Links

Times and Time Zones

All times are in EDT time to prevent confusion due to time zone crossing. See the AAY800 flight status page for this flight to view local times or setup timezone preferences in your user account.

Time Position Orientation Groundspeed Altitude Reporting Facility
EDT Latitude Longitude Course Direction KTS MPH feet Rate Location/Type
07:52AM 27.9000 -82.6833 164° South 152 175 800  Level Tampa TRACON
07:53AM 27.8500 -82.6667 164° South 212 244 2,700 2,040 Climbing Tampa TRACON
07:54AM 27.8667 -82.6000 74° East 263 303 5,000 2,400 Climbing Tampa TRACON
07:56AM 28.0264 -82.6033 359° North 271 312 10,100 2,040 Climbing Jacksonville Center
08:02AM 28.5942 -82.6318 347° North 400 460 22,000 1,920 Climbing FlightAware ADS-B (KMCO)
08:02AM 28.6503 -82.6470 347° North 404 465 23,000 1,140 Climbing FlightAware ADS-B (KMCO)
08:08AM 29.3175 -82.8179 North 445 512 29,300 1,020 Climbing FlightAware ADS-B (KMCO)
08:09AM 29.3667 -82.8139 North 418 481 29,800 1,260 Climbing Jacksonville Center
08:10AM 29.5044 -82.7972 North 424 488 31,300 1,020 Climbing Jacksonville Center
08:11AM 29.6297 -82.7969 360° North 439 505 31,900 960 Climbing Jacksonville Center
08:12AM 29.7508 -82.7969 360° North 435 501 33,300 960 Climbing Jacksonville Center
08:13AM 29.8781 -82.7728 North 446 513 33,900 780 Climbing Jacksonville Center
08:14AM 30.0075 -82.7511 North 457 526 34,900 540 Climbing Jacksonville Center
08:15AM 30.1350 -82.7292 North 462 532 35,000  Climbing Jacksonville Center
08:16AM 30.2600 -82.7097 North 462 532 35,000  Level Jacksonville Center
08:17AM 30.3894 -82.6878 North 457 526 35,000  Level Jacksonville Center
08:18AM 30.5128 -82.6708 North 457 526 35,000  Level Jacksonville Center
08:19AM 30.6400 -82.6536 North 457 526 35,000  Level Jacksonville Center
08:20AM 30.7611 -82.6339 North 452 520 35,000  Level Jacksonville Center
08:21AM 30.8822 -82.6336 360° North 439 505 35,000  Level Jacksonville Center
08:22AM 30.9969 -82.6622 348° North 422 486 35,000  Level Jacksonville Center
08:23AM 31.1142 -82.6864 350° North 422 486 35,100  Climbing Jacksonville Center
08:24AM 31.2867 -82.7317 347° North 404 465 35,000 -60 Descending Atlanta Center
08:25AM 31.4019 -82.7567 350° North 409 471 35,000  Level Atlanta Center
08:26AM 31.5169 -82.7844 348° North 409 471 35,000  Level Atlanta Center
08:27AM 31.6300 -82.8119 348° North 409 471 35,000  Level Atlanta Center
08:28AM 31.7469 -82.8397 349° North 414 476 35,000  Level Atlanta Center
08:29AM 31.8622 -82.8675 348° North 414 476 35,000  Level Atlanta Center
08:30AM 31.9814 -82.8953 349° North 419 482 35,000  Level Atlanta Center
08:31AM 32.0986 -82.9258 348° North 419 482 35,100  Climbing Atlanta Center
08:32AM 32.2136 -82.9539 348° North 424 488 35,000 -60 Descending Atlanta Center
08:33AM 32.3306 -82.9842 348° North 424 488 35,000  Level Atlanta Center
08:34AM 32.4458 -83.0125 348° North 424 488 35,000  Level Atlanta Center
08:35AM 32.5608 -83.0406 348° North 424 488 35,000  Level Atlanta Center
08:36AM 32.6778 -83.0714 347° North 424 488 35,000  Level Atlanta Center
08:37AM 32.7992 -83.0972 350° North 424 488 35,000  Level Atlanta Center
08:38AM 32.9142 -83.1283 347° North 413 475 35,000  Level Atlanta Center
08:39AM 33.0272 -83.1567 348° North 413 475 35,000  Level Atlanta Center
08:40AM 33.1297 -83.1856 347° North 413 475 35,000  Level Atlanta Center
08:41AM 33.2444 -83.2117 349° North 413 475 35,000  Level Atlanta Center
08:42AM 33.3639 -83.2403 349° North 424 488 35,100  Climbing Atlanta Center
08:43AM 33.4786 -83.2692 348° North 425 489 35,100 -60 Level Atlanta Center
08:49AM 34.1761 -83.4426 348° North 398 458 35,000 -60 Descending FlightAware ADS-B (KDZJ)
08:49AM 34.2602 -83.4642 348° North 408 470 35,000  Level FlightAware ADS-B (KDZJ)
08:50AM 34.3273 -83.4813 348° North 409 471 35,000  Level FlightAware ADS-B (KDZJ)
08:51AM 34.4100 -83.5024 348° North 410 472 35,000  Level FlightAware ADS-B (KDZJ)
08:51AM 34.4836 -83.5213 348° North 410 472 35,000  Level FlightAware ADS-B (KDZJ)
08:52AM 34.5561 -83.5401 348° North 410 472 35,000 60 Level FlightAware ADS-B (KDZJ)
08:53AM 34.6228 -83.5575 348° North 411 473 35,100 660 Climbing FlightAware ADS-B (KDZJ)
08:53AM 34.7019 -83.5778 348° North 399 459 35,900 600 Climbing FlightAware ADS-B (KDZJ)
08:54AM 34.7757 -83.5966 348° North 394 453 36,000 60 Climbing FlightAware ADS-B (KDZJ)
08:55AM 34.8530 -83.6170 348° North 395 455 36,000  Level FlightAware ADS-B (KDZJ)
08:55AM 34.9254 -83.6359 348° North 399 459 36,000  Level FlightAware ADS-B (KDZJ)
08:56AM 34.9948 -83.6542 348° North 393 452 36,000  Level FlightAware ADS-B (KDZJ)
08:57AM 35.0718 -83.6743 348° North 396 456 36,000  Level FlightAware ADS-B (KDZJ)
08:57AM 35.1446 -83.6934 348° North 397 457 36,000 60 Level FlightAware ADS-B (KDZJ)
08:58AM 35.2178 -83.7126 348° North 399 459 36,100 60 Climbing FlightAware ADS-B (KDZJ)
08:59AM 35.2916 -83.7318 348° North 408 470 36,100 -120 Level FlightAware ADS-B (KDZJ)
08:59AM 35.3572 -83.7491 348° North 409 471 36,000 -120 Descending FlightAware ADS-B (KDZJ)
09:00AM 35.4169 -83.7649 348° North 412 474 36,000  Level FlightAware ADS-B (KDZJ)
09:00AM 35.4809 -83.7818 348° North 414 476 36,000  Level FlightAware ADS-B (KDZJ)
09:01AM 35.4947 -83.7861 348° North 401 461 36,000  Level Atlanta Center
09:02AM 35.6075 -83.8192 347° North 406 467 36,100  Climbing Atlanta Center
09:03AM 35.7222 -83.8469 349° North 411 473 36,000 -60 Descending Atlanta Center
09:04AM 35.8328 -83.8772 347° North 411 473 36,000  Level Atlanta Center
09:05AM 35.9456 -83.9003 351° North 411 473 36,000  Level Atlanta Center
09:06AM 36.0644 -83.9181 353° North 416 479 36,000  Level Atlanta Center
09:07AM 36.1628 -83.9319 353° North 426 490 36,000  Level Indianapolis Center
09:08AM 36.2822 -83.9492 353° North 430 495 36,100  Climbing Indianapolis Center
09:09AM 36.4006 -83.9672 353° North 430 495 36,000 -60 Descending Indianapolis Center
09:10AM 36.5186 -83.9839 354° North 430 495 36,000  Level Indianapolis Center
09:11AM 36.6500 -84.0036 353° North 430 495 36,000  Level Indianapolis Center
09:17AM 37.3036 -84.1026 353° North 443 510 36,100  Climbing FlightAware ADS-B (KBRY)
09:18AM 37.3898 -84.1157 353° North 438 504 36,100 -60 Level FlightAware ADS-B (KBRY)
09:19AM 37.5553 -84.1407 353° North 438 504 36,000 -60 Descending FlightAware ADS-B (KBRY)
09:20AM 37.6985 -84.1626 353° North 443 510 36,000  Level FlightAware ADS-B (KBRY)
09:21AM 37.7933 -84.1582 North 464 534 36,100  Climbing FlightAware ADS-B (KBRY)
09:24AM 38.2023 -84.1022 North 456 525 36,000 -60 Descending FlightAware ADS-B (KBRY)
09:25AM 38.3077 -84.0878 North 453 521 36,000 -180 Level FlightAware ADS-B (KPMH)
09:25AM 38.3727 -84.0788 North 451 519 35,800 -720 Descending FlightAware ADS-B (KPMH)
09:26AM 38.4079 -84.0741 North 448 516 35,200 -960 Descending FlightAware ADS-B (KBRY)
09:27AM 38.5459 -84.0553 North 448 516 34,500 -960 Descending FlightAware ADS-B (KPMH)
09:27AM 38.6241 -84.0445 North 449 517 33,800 -1,020 Descending FlightAware ADS-B (KPMH)
09:28AM 38.6943 -84.0348 North 449 517 33,300 -780 Descending FlightAware ADS-B (KPMH)
09:28AM 38.7631 -84.0254 North 453 521 33,000 -300 Descending FlightAware ADS-B (KPMH)
09:29AM 38.8255 -84.0169 North 456 525 33,000  Level FlightAware ADS-B (KPMH)
09:30AM 38.9242 -84.0029 North 456 525 33,000  Level FlightAware ADS-B (KPMH)
09:30AM 38.9858 -83.9943 North 456 525 33,000  Level FlightAware ADS-B (KPMH)
09:31AM 39.0626 -83.9834 North 455 524 33,000 -300 Level FlightAware ADS-B (KPMH)
09:32AM 39.1594 -83.9698 North 449 517 32,600 -780 Descending FlightAware ADS-B (KPMH)
09:32AM 39.2278 -83.9605 North 451 519 32,100 -1,080 Descending FlightAware ADS-B (KPMH)
09:33AM 39.2899 -83.9518 North 448 516 31,500 -1,800 Descending FlightAware ADS-B (KPMH)
09:34AM 39.4344 -83.9308 North 441 507 29,000 -2,100 Descending Indianapolis Center
09:35AM 39.5503 -83.9156 North 425 489 26,800 -1,920 Descending Indianapolis Center
09:36AM 39.6611 -83.9000 North 406 467 25,100 -900 Descending Indianapolis Center
09:37AM 39.7711 -83.8842 North 398 458 25,000 -300 Descending Indianapolis Center
09:38AM 39.8822 -83.8678 North 398 458 24,500 -780 Descending Indianapolis Center
09:39AM 39.9933 -83.8528 North 398 458 23,500 -1,020 Descending Indianapolis Center
09:40AM 40.1006 -83.8458 North 389 448 22,400 -1,200 Descending Indianapolis Center
09:41AM 40.2031 -83.8553 356° North 374 430 21,100 -720 Descending Indianapolis Center
09:42AM 40.3256 -83.8642 357° North 370 426 21,000 -120 Descending Indianapolis Center
09:43AM 40.4269 -83.8422 North 368 423 20,900 -540 Descending Indianapolis Center
09:44AM 40.5294 -83.8231 North 370 426 20,000 -960 Descending Indianapolis Center
09:45AM 40.6294 -83.8042 North 368 423 19,000 -1,080 Descending Indianapolis Center
09:46AM 40.7272 -83.7847 North 363 418 17,800 -1,380 Descending Indianapolis Center
09:47AM 40.8219 -83.7653 North 350 403 16,200 -2,040 Descending Indianapolis Center
09:48AM 40.9342 -83.7433 North 345 397 13,600 -2,400 Descending Indianapolis Center
09:49AM 41.0281 -83.7228 North 343 395 11,300 -1,800 Descending Indianapolis Center
09:50AM 41.1083 -83.6819 21° North 325 374 9,900 -1,740 Descending Indianapolis Center
09:51AM 41.1672 -83.6569 18° North 284 327 8,000 -2,160 Descending Cleveland Center
09:52AM 41.2550 -83.6217 17° North 280 322 5,800 -2,280 Descending Cleveland Center
09:53AM 41.3253 -83.5894 19° North 272 313 3,400 -1,680 Descending Cleveland Center
09:54AM 41.3958 -83.5628 16° North 271 312 2,400 -540 Descending Cleveland Center
09:55AM 41.4556 -83.5406 16° North 246 283 2,400  Level Cleveland Center
09:56AM 41.5103 -83.5261 11° North 221 254 2,400  Level Cleveland Center
09:57AM 41.5650 -83.5328 355° North 206 237 2,400  Level Cleveland Center
09:58AM 41.6317 -83.5350 359° North 202 232 2,400  Level Cleveland Center
10:00AM 41.6572 -83.5744 311° West 184 212 2,400  Level Cleveland Center
10:01AM 41.6447 -83.6300 253° West 170 196 2,400  Level Cleveland Center
10:02AM 41.6275 -83.6828 246° West 160 184 2,400 -300 Level Cleveland Center
10:03AM 41.6128 -83.7306 248° West 152 175 1,800 -480 Descending Cleveland Center
10:04AM 41.5964 -83.7853 248° West 147 169 1,500 -300 Descending Cleveland Center